createdAt,value
2022-09-12T00:01:25.444Z,17.80
2022-09-12T00:03:54.203Z,17.80
2022-09-12T00:06:24.306Z,17.79
2022-09-12T00:08:55.456Z,17.74
2022-09-12T00:11:23.899Z,17.75
2022-09-12T00:13:56.236Z,17.73
2022-09-12T00:16:26.064Z,17.73
2022-09-12T00:18:56.458Z,17.76
2022-09-12T00:21:24.566Z,17.75
2022-09-12T00:23:52.635Z,17.71
2022-09-12T00:26:21.747Z,17.71
2022-09-12T00:28:50.344Z,17.69
2022-09-12T00:31:21.493Z,17.67
2022-09-12T00:33:49.229Z,17.63
2022-09-12T00:36:19.163Z,17.66
2022-09-12T00:38:47.705Z,17.66
2022-09-12T00:41:18.960Z,17.67
2022-09-12T00:43:49.625Z,17.67
2022-09-12T00:46:28.036Z,17.61
2022-09-12T00:49:02.771Z,17.52
2022-09-12T00:51:33.928Z,17.57
2022-09-12T00:54:06.996Z,17.56
2022-09-12T00:56:36.530Z,17.56
2022-09-12T00:59:08.371Z,17.46
2022-09-12T01:01:38.813Z,17.58
2022-09-12T01:04:06.771Z,17.57
2022-09-12T01:06:38.444Z,17.54
2022-09-12T01:09:06.487Z,17.55
2022-09-12T01:11:38.419Z,17.54
2022-09-12T01:14:07.428Z,17.48
2022-09-12T01:16:38.109Z,17.45
2022-09-12T01:19:26.430Z,17.47
2022-09-12T01:22:12.475Z,17.48
2022-09-12T01:25:01.308Z,17.48
2022-09-12T01:27:45.048Z,17.49
2022-09-12T01:30:39.858Z,17.46
2022-09-12T01:33:24.919Z,17.45
2022-09-12T01:36:02.932Z,17.37
2022-09-12T01:38:39.670Z,17.40
2022-09-12T01:41:18.930Z,17.43
2022-09-12T01:43:53.451Z,17.33
2022-09-12T01:46:28.605Z,17.31
2022-09-12T01:49:01.498Z,17.31
2022-09-12T01:51:35.952Z,17.28
2022-09-12T01:54:09.744Z,17.22
2022-09-12T01:56:41.303Z,17.16
2022-09-12T01:59:16.014Z,17.23
2022-09-12T02:01:49.692Z,17.15
2022-09-12T02:04:21.914Z,17.21
2022-09-12T02:06:53.354Z,17.22
2022-09-12T02:09:24.875Z,17.11
2022-09-12T02:11:57.468Z,17.10
2022-09-12T02:14:27.695Z,17.19
2022-09-12T02:17:02.283Z,17.22
2022-09-12T02:19:35.374Z,17.22
2022-09-12T02:22:05.858Z,17.21
2022-09-12T02:24:39.655Z,17.17
2022-09-12T02:27:13.623Z,17.15
2022-09-12T02:29:41.709Z,17.11
2022-09-12T02:32:20.034Z,17.15
2022-09-12T02:34:53.839Z,17.13
2022-09-12T02:37:30.260Z,17.12
2022-09-12T02:39:58.930Z,17.08
2022-09-12T02:42:27.049Z,17.16
2022-09-12T02:44:57.130Z,17.13
2022-09-12T02:47:29.892Z,17.14
2022-09-12T02:49:57.977Z,17.09
2022-09-12T02:52:26.564Z,17.10
2022-09-12T02:54:56.280Z,17.07
2022-09-12T02:57:24.059Z,17.00
2022-09-12T02:59:56.715Z,17.01
2022-09-12T03:02:33.331Z,17.02
2022-09-12T03:05:15.488Z,16.98
2022-09-12T03:08:07.503Z,16.99
2022-09-12T03:10:44.060Z,17.01
2022-09-12T03:13:21.679Z,17.01
2022-09-12T03:16:00.403Z,17.00
2022-09-12T03:18:43.648Z,16.99
2022-09-12T03:21:17.932Z,16.95
2022-09-12T03:23:52.618Z,16.91
2022-09-12T03:26:28.534Z,16.99
2022-09-12T03:28:59.202Z,16.97
2022-09-12T03:31:27.044Z,16.92
2022-09-12T03:33:56.127Z,16.94
2022-09-12T03:36:26.527Z,16.88
2022-09-12T03:38:54.434Z,16.84
2022-09-12T03:41:22.620Z,16.88
2022-09-12T03:43:50.423Z,16.85
2022-09-12T03:46:18.196Z,16.85
2022-09-12T03:48:45.997Z,16.82
2022-09-12T03:51:15.109Z,16.82
2022-09-12T03:53:43.305Z,16.82
2022-09-12T03:56:13.214Z,16.80
2022-09-12T03:58:41.339Z,16.80
2022-09-12T04:01:12.570Z,16.80
2022-09-12T04:03:41.023Z,16.77
2022-09-12T04:06:09.823Z,16.80
2022-09-12T04:08:39.640Z,16.77
2022-09-12T04:11:08.384Z,16.77
2022-09-12T04:13:36.560Z,16.75
2022-09-12T04:16:05.476Z,16.65
2022-09-12T04:18:33.276Z,16.72
2022-09-12T04:21:05.020Z,16.73
2022-09-12T04:23:32.778Z,16.74
2022-09-12T04:26:06.356Z,16.73
2022-09-12T04:28:34.838Z,16.70
2022-09-12T04:31:04.765Z,16.70
2022-09-12T04:33:32.700Z,16.68
2022-09-12T04:36:05.170Z,16.70
2022-09-12T04:38:33.146Z,16.68
2022-09-12T04:41:02.403Z,16.70
2022-09-12T04:43:30.071Z,16.66
2022-09-12T04:45:58.408Z,16.66
2022-09-12T04:48:27.015Z,16.64
2022-09-12T04:50:54.699Z,16.64
2022-09-12T04:53:22.398Z,16.60
2022-09-12T04:55:50.091Z,16.62
2022-09-12T04:58:19.204Z,16.67
2022-09-12T05:00:46.875Z,16.63
2022-09-12T05:03:14.703Z,16.63
2022-09-12T05:05:44.279Z,16.63
2022-09-12T05:08:13.184Z,16.68
2022-09-12T05:10:41.416Z,16.66
2022-09-12T05:13:09.399Z,16.64
2022-09-12T05:15:38.999Z,16.68
2022-09-12T05:18:07.500Z,16.70
2022-09-12T05:20:35.447Z,16.68
2022-09-12T05:23:03.208Z,16.70
2022-09-12T05:25:31.179Z,16.70
2022-09-12T05:27:58.963Z,16.73
2022-09-12T05:30:26.653Z,16.75
2022-09-12T05:32:56.323Z,16.77
2022-09-12T05:35:24.096Z,16.76
2022-09-12T05:37:52.510Z,16.67
2022-09-12T05:40:23.291Z,16.75
2022-09-12T05:42:51.030Z,16.76
2022-09-12T05:45:18.726Z,16.80
2022-09-12T05:47:47.791Z,16.82
2022-09-12T05:50:17.100Z,16.81
2022-09-12T05:52:46.058Z,16.83
2022-09-12T05:55:14.339Z,16.82
2022-09-12T05:57:45.829Z,16.94
2022-09-12T06:00:15.528Z,16.95
2022-09-12T06:02:43.600Z,16.93
2022-09-12T06:05:11.777Z,16.99
2022-09-12T06:07:40.895Z,17.04
2022-09-12T06:10:09.274Z,17.01
2022-09-12T06:12:36.960Z,17.06
2022-09-12T06:15:05.171Z,17.12
2022-09-12T06:17:33.304Z,17.13
2022-09-12T06:20:01.798Z,17.13
2022-09-12T06:22:29.494Z,17.17
2022-09-12T06:24:58.517Z,17.22
2022-09-12T06:27:26.608Z,17.22
2022-09-12T06:29:54.343Z,17.26
2022-09-12T06:32:22.025Z,17.25
2022-09-12T06:34:49.816Z,17.28
2022-09-12T06:37:17.527Z,17.33
2022-09-12T06:39:45.277Z,17.36
2022-09-12T06:42:14.863Z,17.40
2022-09-12T06:44:52.022Z,17.45
2022-09-12T06:47:20.622Z,17.50
2022-09-12T06:49:48.320Z,17.55
2022-09-12T06:52:16.025Z,17.58
2022-09-12T06:54:43.667Z,17.58
2022-09-12T06:57:11.364Z,17.63
2022-09-12T06:59:40.410Z,17.69
2022-09-12T07:02:09.949Z,17.71
2022-09-12T07:04:37.734Z,17.72
2022-09-12T07:07:05.757Z,17.76
2022-09-12T07:09:33.467Z,17.77
2022-09-12T07:12:04.279Z,17.80
2022-09-12T07:14:32.033Z,17.84
2022-09-12T07:17:01.475Z,17.89
2022-09-12T07:19:29.609Z,17.93
2022-09-12T07:21:58.795Z,17.90
2022-09-12T07:24:26.701Z,17.92
2022-09-12T07:26:54.572Z,17.88
2022-09-12T07:29:38.127Z,18.02
2022-09-12T07:32:07.766Z,18.05
2022-09-12T07:34:36.081Z,18.05
2022-09-12T07:37:04.015Z,18.10
2022-09-12T07:39:32.344Z,18.13
2022-09-12T07:42:00.394Z,18.18
2022-09-12T07:44:28.148Z,18.25
2022-09-12T07:46:56.128Z,18.32
2022-09-12T07:49:25.242Z,18.37
2022-09-12T07:51:53.145Z,18.39
2022-09-12T07:54:21.011Z,18.42
2022-09-12T07:56:48.863Z,18.46
2022-09-12T07:59:29.956Z,18.52
2022-09-12T08:02:03.899Z,18.39
2022-09-12T08:04:33.030Z,18.45
2022-09-12T08:07:00.722Z,18.50
2022-09-12T08:09:28.423Z,18.54
2022-09-12T08:11:56.481Z,18.57
2022-09-12T08:14:24.291Z,18.53
2022-09-12T08:16:51.980Z,18.51
2022-09-12T08:19:19.868Z,18.55
2022-09-12T08:21:48.999Z,18.60
2022-09-12T08:24:16.811Z,18.64
2022-09-12T08:26:44.462Z,18.69
2022-09-12T08:29:12.660Z,18.75
2022-09-12T08:31:42.435Z,18.75
2022-09-12T08:34:10.853Z,18.77
2022-09-12T08:36:38.605Z,18.77
2022-09-12T08:39:08.892Z,18.81
2022-09-12T08:41:40.707Z,18.84
2022-09-12T08:44:27.706Z,18.82
2022-09-12T08:47:11.920Z,18.87
2022-09-12T08:49:48.963Z,18.86
2022-09-12T08:52:22.227Z,18.85
2022-09-12T08:54:51.848Z,18.90
2022-09-12T08:57:19.567Z,18.88
2022-09-12T08:59:48.332Z,18.93
2022-09-12T09:02:42.497Z,19.01
2022-09-12T09:05:20.134Z,19.03
2022-09-12T09:08:05.691Z,19.11
2022-09-12T09:10:43.719Z,19.14
2022-09-12T09:13:39.219Z,19.15
2022-09-12T09:16:13.930Z,19.14
2022-09-12T09:18:44.698Z,19.11
2022-09-12T09:21:22.817Z,19.18
2022-09-12T09:23:54.403Z,19.23
2022-09-12T09:26:29.085Z,19.33
2022-09-12T09:29:00.492Z,19.40
2022-09-12T09:31:34.641Z,19.44
2022-09-12T09:34:02.488Z,19.51
2022-09-12T09:36:41.956Z,19.66
2022-09-12T09:39:17.503Z,19.70
2022-09-12T09:42:00.207Z,19.84
2022-09-12T09:44:29.902Z,19.85
2022-09-12T09:47:00.434Z,19.90
2022-09-12T09:49:32.276Z,19.98
2022-09-12T09:52:01.790Z,20.07
2022-09-12T09:54:35.936Z,20.12
2022-09-12T09:57:05.599Z,20.13
2022-09-12T09:59:35.012Z,20.24
2022-09-12T10:02:05.339Z,20.29
2022-09-12T10:04:39.359Z,20.48
2022-09-12T10:07:19.342Z,20.83
2022-09-12T10:10:06.990Z,21.00
2022-09-12T10:12:36.176Z,21.26
2022-09-12T10:15:17.989Z,21.47
2022-09-12T10:17:47.338Z,21.82
2022-09-12T10:20:33.062Z,21.99
2022-09-12T10:23:02.377Z,22.38
2022-09-12T10:25:30.342Z,22.60
2022-09-12T10:28:02.804Z,22.69
2022-09-12T10:30:30.728Z,22.87
2022-09-12T10:33:06.799Z,22.94
2022-09-12T10:35:46.451Z,23.21
2022-09-12T10:38:18.870Z,23.47
2022-09-12T10:40:46.597Z,23.47
2022-09-12T10:43:27.470Z,23.60
2022-09-12T10:45:58.874Z,23.70
2022-09-12T10:48:30.270Z,24.00
2022-09-12T10:50:59.942Z,24.08
2022-09-12T10:53:34.119Z,24.13
2022-09-12T10:56:09.407Z,24.26
2022-09-12T10:58:53.609Z,24.34
2022-09-12T11:01:36.305Z,24.71
2022-09-12T11:04:20.078Z,24.75
2022-09-12T11:06:56.427Z,24.86
2022-09-12T11:09:33.604Z,24.99
2022-09-12T11:12:10.022Z,25.26
2022-09-12T11:14:53.619Z,25.44
2022-09-12T11:17:30.423Z,25.59
2022-09-12T11:20:27.316Z,25.82
2022-09-12T11:23:27.691Z,26.01
2022-09-12T11:26:04.102Z,26.38
2022-09-12T11:28:47.077Z,26.50
2022-09-12T11:31:32.833Z,26.53
2022-09-12T11:34:03.796Z,26.75
2022-09-12T11:36:39.913Z,26.96
2022-09-12T11:39:15.799Z,27.12
2022-09-12T11:41:47.954Z,27.36
2022-09-12T11:44:22.249Z,27.37
2022-09-12T11:46:52.230Z,27.53
2022-09-12T11:49:33.553Z,27.66
2022-09-12T11:52:08.358Z,27.89
2022-09-12T11:54:40.759Z,27.97
2022-09-12T11:57:17.069Z,28.23
2022-09-12T11:59:50.775Z,28.44
2022-09-12T12:02:26.426Z,28.43
2022-09-12T12:05:05.952Z,28.33
2022-09-12T12:07:45.585Z,28.45
2022-09-12T12:10:26.643Z,28.68
2022-09-12T12:12:56.095Z,28.68
2022-09-12T12:15:25.258Z,28.70
2022-09-12T12:18:04.632Z,28.68
2022-09-12T12:20:32.615Z,28.94
2022-09-12T12:23:00.925Z,29.11
2022-09-12T12:25:41.511Z,29.11
2022-09-12T12:28:09.580Z,29.26
2022-09-12T12:31:05.388Z,29.34
2022-09-12T12:34:01.739Z,29.44
2022-09-12T12:36:50.164Z,29.36
2022-09-12T12:40:03.102Z,29.35
2022-09-12T12:43:05.116Z,29.44
2022-09-12T12:46:06.930Z,29.43
2022-09-12T12:48:58.870Z,29.38
2022-09-12T12:51:51.231Z,29.39
2022-09-12T12:54:49.497Z,29.49
2022-09-12T12:57:20.757Z,29.64
2022-09-12T12:59:51.869Z,29.51
2022-09-12T13:02:28.870Z,29.42
2022-09-12T13:05:01.047Z,29.42
2022-09-12T13:07:33.284Z,29.31
2022-09-12T13:10:02.286Z,29.07
2022-09-12T13:12:33.971Z,29.09
2022-09-12T13:15:30.343Z,28.76
2022-09-12T13:18:02.561Z,27.96
2022-09-12T13:20:39.263Z,27.41
2022-09-12T13:23:07.001Z,26.98
2022-09-12T13:25:36.635Z,26.61
2022-09-12T13:28:07.735Z,26.41
2022-09-12T13:30:41.518Z,26.19
2022-09-12T13:33:20.649Z,25.97
2022-09-12T13:36:31.639Z,25.75
2022-09-12T13:39:11.808Z,25.67
2022-09-12T13:41:57.716Z,25.64
2022-09-12T13:44:27.467Z,25.52
2022-09-12T13:47:02.729Z,25.52
2022-09-12T13:49:35.321Z,25.42
2022-09-12T13:52:07.585Z,25.37
2022-09-12T13:54:40.156Z,25.44
2022-09-12T13:57:07.893Z,25.62
2022-09-12T13:59:44.516Z,25.84
2022-09-12T14:02:20.289Z,26.03
2022-09-12T14:05:06.550Z,26.19
2022-09-12T14:07:40.061Z,26.30
2022-09-12T14:10:08.702Z,26.24
2022-09-12T14:12:40.212Z,26.19
2022-09-12T14:15:16.928Z,26.16
2022-09-12T14:17:52.036Z,26.07
2022-09-12T14:20:23.195Z,26.00
2022-09-12T14:22:53.794Z,25.89
2022-09-12T14:25:24.502Z,25.83
2022-09-12T14:27:55.326Z,25.84
2022-09-12T14:30:26.212Z,25.82
2022-09-12T14:33:18.165Z,25.80
2022-09-12T14:35:47.864Z,25.67
2022-09-12T14:38:23.414Z,25.68
2022-09-12T14:40:54.301Z,25.61
2022-09-12T14:43:27.593Z,25.64
2022-09-12T14:45:57.343Z,25.61
2022-09-12T14:48:25.331Z,25.54
2022-09-12T14:50:55.007Z,25.51
2022-09-12T14:53:31.304Z,25.49
2022-09-12T14:56:07.140Z,25.42
2022-09-12T14:58:35.135Z,25.40
2022-09-12T15:01:05.814Z,25.28
2022-09-12T15:03:36.788Z,25.29
2022-09-12T15:06:07.976Z,25.23
2022-09-12T15:08:37.168Z,25.21
2022-09-12T15:11:07.927Z,25.17
2022-09-12T15:13:41.081Z,25.12
2022-09-12T15:16:11.285Z,25.03
2022-09-12T15:18:39.368Z,24.97
2022-09-12T15:21:08.866Z,24.97
2022-09-12T15:23:41.395Z,25.01
2022-09-12T15:26:13.253Z,24.97
2022-09-12T15:28:41.242Z,24.97
2022-09-12T15:31:14.831Z,24.90
2022-09-12T15:33:42.665Z,24.89
2022-09-12T15:36:15.684Z,24.92
2022-09-12T15:38:45.496Z,24.91
2022-09-12T15:41:16.748Z,24.81
2022-09-12T15:43:44.819Z,24.78
2022-09-12T15:46:13.717Z,24.70
2022-09-12T15:48:41.805Z,24.71
2022-09-12T15:51:15.479Z,24.69
2022-09-12T15:53:45.231Z,24.67
2022-09-12T15:56:13.291Z,24.59
2022-09-12T15:58:57.088Z,24.58
2022-09-12T16:01:25.347Z,24.60
2022-09-12T16:03:53.164Z,24.55
2022-09-12T16:06:20.906Z,24.57
2022-09-12T16:08:50.257Z,24.49
2022-09-12T16:11:22.357Z,24.39
2022-09-12T16:13:50.356Z,24.42
2022-09-12T16:16:18.079Z,24.37
2022-09-12T16:18:46.000Z,24.32
2022-09-12T16:21:15.531Z,24.34
2022-09-12T16:23:43.971Z,24.30
2022-09-12T16:26:13.223Z,24.24
2022-09-12T16:28:41.195Z,24.25
2022-09-12T16:31:11.821Z,24.30
2022-09-12T16:33:40.607Z,24.28
2022-09-12T16:36:10.343Z,24.19
2022-09-12T16:38:42.354Z,24.22
2022-09-12T16:41:10.440Z,24.23
2022-09-12T16:43:39.959Z,24.18
2022-09-12T16:46:10.250Z,24.17
2022-09-12T16:48:38.886Z,24.10
2022-09-12T16:51:07.797Z,24.10
2022-09-12T16:53:37.939Z,24.08
2022-09-12T16:56:09.431Z,24.06
2022-09-12T16:58:42.034Z,24.01
2022-09-12T17:01:12.144Z,23.94
2022-09-12T17:03:40.502Z,23.91
2022-09-12T17:06:10.956Z,23.85
2022-09-12T17:08:40.683Z,23.81
2022-09-12T17:11:10.679Z,23.80
2022-09-12T17:14:03.193Z,23.75
2022-09-12T17:16:31.142Z,23.61
2022-09-12T17:18:58.919Z,23.61
2022-09-12T17:21:26.698Z,23.57
2022-09-12T17:23:54.418Z,23.53
2022-09-12T17:26:22.224Z,23.46
2022-09-12T17:28:51.279Z,23.40
2022-09-12T17:31:19.754Z,23.38
2022-09-12T17:33:47.813Z,23.34
2022-09-12T17:36:18.749Z,23.30
2022-09-12T17:38:47.358Z,23.23
2022-09-12T17:41:17.836Z,23.23
2022-09-12T17:43:46.392Z,23.23
2022-09-12T17:46:15.646Z,23.15
2022-09-12T17:48:43.702Z,23.10
2022-09-12T17:51:13.431Z,23.01
2022-09-12T17:53:41.642Z,22.97
2022-09-12T17:56:10.917Z,22.86
2022-09-12T17:58:39.244Z,22.81
2022-09-12T18:01:26.664Z,22.78
2022-09-12T18:03:56.718Z,22.60
2022-09-12T18:06:25.318Z,22.66
2022-09-12T18:08:53.055Z,22.54
2022-09-12T18:11:20.947Z,22.56
2022-09-12T18:13:48.769Z,22.53
2022-09-12T18:16:17.047Z,22.44
2022-09-12T18:18:44.822Z,22.49
2022-09-12T18:21:14.309Z,22.42
2022-09-12T18:23:42.055Z,22.35
2022-09-12T18:26:12.499Z,22.28
2022-09-12T18:28:42.663Z,22.27
2022-09-12T18:31:15.604Z,22.20
2022-09-12T18:33:43.865Z,22.16
2022-09-12T18:36:14.839Z,22.16
2022-09-12T18:38:43.231Z,22.15
2022-09-12T18:41:12.414Z,22.12
2022-09-12T18:43:40.108Z,22.08
2022-09-12T18:46:09.603Z,22.12
2022-09-12T18:48:37.581Z,22.12
2022-09-12T18:51:08.008Z,22.11
2022-09-12T18:53:37.814Z,22.06
2022-09-12T18:56:09.276Z,22.09
2022-09-12T18:58:37.103Z,22.05
2022-09-12T19:01:12.947Z,22.03
2022-09-12T19:03:40.729Z,21.98
2022-09-12T19:06:11.730Z,21.93
2022-09-12T19:08:41.417Z,21.90
2022-09-12T19:11:10.205Z,21.85
2022-09-12T19:13:39.784Z,21.83
2022-09-12T19:16:10.022Z,21.79
2022-09-12T19:18:38.775Z,21.79
2022-09-12T19:21:07.940Z,21.77
2022-09-12T19:23:36.658Z,21.74
2022-09-12T19:26:07.829Z,21.70
2022-09-12T19:28:36.212Z,21.68
2022-09-12T19:31:05.636Z,21.70
2022-09-12T19:33:33.765Z,21.68
2022-09-12T19:36:02.709Z,21.61
2022-09-12T19:38:31.054Z,21.55
2022-09-12T19:41:00.215Z,21.67
2022-09-12T19:43:30.584Z,21.65
2022-09-12T19:45:58.612Z,21.63
2022-09-12T19:48:26.598Z,21.59
2022-09-12T19:50:54.432Z,21.64
2022-09-12T19:53:22.198Z,21.62
2022-09-12T19:55:50.040Z,21.48
2022-09-12T19:58:17.787Z,21.59
2022-09-12T20:00:46.923Z,21.32
2022-09-12T20:03:14.608Z,21.58
2022-09-12T20:05:42.994Z,21.54
2022-09-12T20:08:10.787Z,21.53
2022-09-12T20:10:38.471Z,21.53
2022-09-12T20:13:07.260Z,21.25
2022-09-12T20:15:35.006Z,21.52
2022-09-12T20:18:04.282Z,21.52
2022-09-12T20:20:32.629Z,21.53
2022-09-12T20:23:00.361Z,21.50
2022-09-12T20:25:28.193Z,21.52
2022-09-12T20:27:59.937Z,21.53
2022-09-12T20:30:28.210Z,21.26
2022-09-12T20:32:55.925Z,21.46
2022-09-12T20:35:25.779Z,21.48
2022-09-12T20:37:53.554Z,21.47
2022-09-12T20:40:21.350Z,21.46
2022-09-12T20:42:49.316Z,21.46
2022-09-12T20:45:17.056Z,21.47
2022-09-12T20:47:44.813Z,21.42
2022-09-12T20:50:12.757Z,21.23
2022-09-12T20:52:41.905Z,21.34
2022-09-12T20:55:10.872Z,21.32
2022-09-12T20:57:38.609Z,21.30
2022-09-12T21:00:09.021Z,21.28
2022-09-12T21:02:36.840Z,21.27
2022-09-12T21:05:04.999Z,21.24
2022-09-12T21:07:32.799Z,21.11
2022-09-12T21:10:01.899Z,21.03
2022-09-12T21:12:29.623Z,21.10
2022-09-12T21:14:57.386Z,21.08
2022-09-12T21:17:25.583Z,21.04
2022-09-12T21:19:53.371Z,21.04
2022-09-12T21:22:21.062Z,21.02
2022-09-12T21:24:48.790Z,21.04
2022-09-12T21:27:17.862Z,21.04
2022-09-12T21:29:45.591Z,21.03
2022-09-12T21:32:14.379Z,21.04
2022-09-12T21:34:42.201Z,21.04
2022-09-12T21:37:09.977Z,21.04
2022-09-12T21:39:37.752Z,21.02
2022-09-12T21:42:05.589Z,21.06
2022-09-12T21:44:34.641Z,20.86
2022-09-12T21:47:02.392Z,21.06
2022-09-12T21:49:30.087Z,21.08
2022-09-12T21:51:57.909Z,21.07
2022-09-12T21:54:25.633Z,20.99
2022-09-12T21:56:53.355Z,20.98
2022-09-12T21:59:21.310Z,21.03
2022-09-12T22:01:50.480Z,21.01
2022-09-12T22:04:18.220Z,20.92
2022-09-12T22:06:45.905Z,20.96
2022-09-12T22:09:14.082Z,20.96
2022-09-12T22:11:41.784Z,20.94
2022-09-12T22:14:09.491Z,20.94
2022-09-12T22:16:37.232Z,20.93
2022-09-12T22:19:06.266Z,20.92
2022-09-12T22:21:33.959Z,20.90
2022-09-12T22:24:19.167Z,20.92
2022-09-12T22:26:47.393Z,20.87
2022-09-12T22:29:15.149Z,20.85
2022-09-12T22:31:43.128Z,20.84
2022-09-12T22:34:12.329Z,20.82
2022-09-12T22:36:40.496Z,20.77
2022-09-12T22:39:08.712Z,20.78
2022-09-12T22:41:36.415Z,20.76
2022-09-12T22:44:04.159Z,20.71
2022-09-12T22:46:32.488Z,20.69
2022-09-12T22:49:00.404Z,20.66
2022-09-12T22:51:29.458Z,20.52
2022-09-12T22:53:57.458Z,20.66
2022-09-12T22:56:25.695Z,20.51
2022-09-12T22:58:53.820Z,20.58
2022-09-12T23:01:21.639Z,20.52
2022-09-12T23:03:49.440Z,20.51
2022-09-12T23:06:20.482Z,20.49
2022-09-12T23:08:49.564Z,20.35
2022-09-12T23:11:19.138Z,20.43
2022-09-12T23:13:48.855Z,20.29
2022-09-12T23:16:19.287Z,20.33
2022-09-12T23:18:47.275Z,20.29
2022-09-12T23:21:17.291Z,20.24
2022-09-12T23:23:45.388Z,20.15
2022-09-12T23:26:17.244Z,20.24
2022-09-12T23:28:50.139Z,20.15
2022-09-12T23:31:18.567Z,20.16
2022-09-12T23:33:46.938Z,20.08
2022-09-12T23:36:15.128Z,19.91
2022-09-12T23:38:44.723Z,20.05
2022-09-12T23:41:15.191Z,20.03
2022-09-12T23:43:45.256Z,19.96
2022-09-12T23:46:13.881Z,20.04
2022-09-12T23:48:42.302Z,20.02
2022-09-12T23:51:11.153Z,19.80
2022-09-12T23:53:39.212Z,20.01
2022-09-12T23:56:07.598Z,19.99
2022-09-12T23:58:36.881Z,19.98
